sensor_id;sensor_type;location;lat;lon;timestamp;pressure;altitude;pressure_sealevel;temperature;humidity
75536;BME280;64119;52.070;20.804;2023-03-01T00:01:40;101793.27;;;-4.10;78.31
75536;BME280;64119;52.070;20.804;2023-03-01T00:04:08;101793.28;;;-4.11;78.41
75536;BME280;64119;52.070;20.804;2023-03-01T00:06:36;101804.43;;;-4.13;78.46
75536;BME280;64119;52.070;20.804;2023-03-01T00:09:05;101817.73;;;-4.17;79.06
75536;BME280;64119;52.070;20.804;2023-03-01T00:11:34;101819.56;;;-4.20;78.75
75536;BME280;64119;52.070;20.804;2023-03-01T00:14:02;101819.48;;;-4.18;78.14
75536;BME280;64119;52.070;20.804;2023-03-01T00:16:40;101815.08;;;-4.16;77.94
75536;BME280;64119;52.070;20.804;2023-03-01T00:19:12;101809.17;;;-4.15;78.63
75536;BME280;64119;52.070;20.804;2023-03-01T00:21:40;101805.28;;;-4.13;78.78
75536;BME280;64119;52.070;20.804;2023-03-01T00:24:09;101794.59;;;-4.13;78.18
75536;BME280;64119;52.070;20.804;2023-03-01T00:26:37;101796.30;;;-4.13;78.03
75536;BME280;64119;52.070;20.804;2023-03-01T00:29:05;101799.45;;;-4.09;78.81
75536;BME280;64119;52.070;20.804;2023-03-01T00:31:34;101795.73;;;-4.07;77.25
75536;BME280;64119;52.070;20.804;2023-03-01T00:34:04;101793.92;;;-4.00;76.46
75536;BME280;64119;52.070;20.804;2023-03-01T00:36:34;101793.64;;;-3.93;77.11
75536;BME280;64119;52.070;20.804;2023-03-01T00:39:05;101792.79;;;-3.89;77.61
75536;BME280;64119;52.070;20.804;2023-03-01T00:41:34;101788.77;;;-3.89;78.87
75536;BME280;64119;52.070;20.804;2023-03-01T00:44:03;101791.23;;;-3.90;77.40
75536;BME280;64119;52.070;20.804;2023-03-01T00:46:31;101786.40;;;-3.85;77.05
75536;BME280;64119;52.070;20.804;2023-03-01T00:49:00;101783.32;;;-3.82;76.70
75536;BME280;64119;52.070;20.804;2023-03-01T00:51:30;101779.61;;;-3.76;76.38
75536;BME280;64119;52.070;20.804;2023-03-01T00:54:00;101772.71;;;-3.72;76.61
75536;BME280;64119;52.070;20.804;2023-03-01T00:56:29;101762.65;;;-3.67;76.11
75536;BME280;64119;52.070;20.804;2023-03-01T00:58:58;101756.73;;;-3.62;76.11
75536;BME280;64119;52.070;20.804;2023-03-01T01:01:28;101753.36;;;-3.56;76.55
75536;BME280;64119;52.070;20.804;2023-03-01T01:04:02;101748.33;;;-3.52;76.04
75536;BME280;64119;52.070;20.804;2023-03-01T01:06:33;101746.20;;;-3.43;76.15
75536;BME280;64119;52.070;20.804;2023-03-01T01:09:05;101744.27;;;-3.34;75.85
75536;BME280;64119;52.070;20.804;2023-03-01T01:11:35;101735.70;;;-3.28;76.15
75536;BME280;64119;52.070;20.804;2023-03-01T01:14:04;101743.04;;;-3.22;76.71
75536;BME280;64119;52.070;20.804;2023-03-01T01:16:32;101749.77;;;-3.29;76.12
75536;BME280;64119;52.070;20.804;2023-03-01T01:19:01;101746.54;;;-3.34;76.57
75536;BME280;64119;52.070;20.804;2023-03-01T01:21:29;101747.96;;;-3.31;76.47
75536;BME280;64119;52.070;20.804;2023-03-01T01:23:57;101744.40;;;-3.25;76.76
75536;BME280;64119;52.070;20.804;2023-03-01T01:26:30;101741.61;;;-3.17;76.61
75536;BME280;64119;52.070;20.804;2023-03-01T01:28:59;101743.28;;;-3.08;76.45
75536;BME280;64119;52.070;20.804;2023-03-01T01:31:28;101741.95;;;-3.01;76.66
75536;BME280;64119;52.070;20.804;2023-03-01T01:33:57;101734.73;;;-2.98;76.58
75536;BME280;64119;52.070;20.804;2023-03-01T01:36:26;101731.59;;;-2.94;76.44
75536;BME280;64119;52.070;20.804;2023-03-01T01:38:55;101734.46;;;-2.93;76.59
75536;BME280;64119;52.070;20.804;2023-03-01T01:41:25;101731.53;;;-2.93;76.89
75536;BME280;64119;52.070;20.804;2023-03-01T01:47:07;101718.84;;;-3.03;77.49
75536;BME280;64119;52.070;20.804;2023-03-01T01:49:46;101718.36;;;-3.04;77.99
75536;BME280;64119;52.070;20.804;2023-03-01T01:52:21;101716.05;;;-3.10;77.45
75536;BME280;64119;52.070;20.804;2023-03-01T01:54:59;101710.11;;;-3.16;77.72
75536;BME280;64119;52.070;20.804;2023-03-01T01:57:39;101709.98;;;-3.17;77.55
75536;BME280;64119;52.070;20.804;2023-03-01T02:00:12;101705.15;;;-3.18;77.17
75536;BME280;64119;52.070;20.804;2023-03-01T02:02:41;101705.84;;;-3.17;77.22
75536;BME280;64119;52.070;20.804;2023-03-01T02:05:26;101701.73;;;-3.19;77.67
75536;BME280;64119;52.070;20.804;2023-03-01T02:07:58;101695.07;;;-3.20;77.93
75536;BME280;64119;52.070;20.804;2023-03-01T02:10:27;101693.21;;;-3.21;76.89
75536;BME280;64119;52.070;20.804;2023-03-01T02:12:55;101694.05;;;-3.21;77.44
75536;BME280;64119;52.070;20.804;2023-03-01T02:15:23;101692.91;;;-3.22;77.26
75536;BME280;64119;52.070;20.804;2023-03-01T02:17:52;101697.84;;;-3.24;77.27
75536;BME280;64119;52.070;20.804;2023-03-01T02:23:19;101695.52;;;-3.34;76.81
75536;BME280;64119;52.070;20.804;2023-03-01T02:28:52;101703.03;;;-3.40;76.74
75536;BME280;64119;52.070;20.804;2023-03-01T02:31:21;101700.20;;;-3.43;77.07
75536;BME280;64119;52.070;20.804;2023-03-01T02:34:14;101704.77;;;-3.40;76.71
75536;BME280;64119;52.070;20.804;2023-03-01T02:36:54;101704.70;;;-3.42;76.74
75536;BME280;64119;52.070;20.804;2023-03-01T02:39:27;101702.30;;;-3.43;77.14
75536;BME280;64119;52.070;20.804;2023-03-01T02:41:57;101697.56;;;-3.42;78.40
75536;BME280;64119;52.070;20.804;2023-03-01T02:44:26;101697.99;;;-3.40;77.22
75536;BME280;64119;52.070;20.804;2023-03-01T02:46:56;101694.73;;;-3.40;77.58
75536;BME280;64119;52.070;20.804;2023-03-01T02:49:31;101691.41;;;-3.39;77.22
75536;BME280;64119;52.070;20.804;2023-03-01T02:52:43;101687.09;;;-3.35;77.27
75536;BME280;64119;52.070;20.804;2023-03-01T02:55:17;101687.69;;;-3.33;77.39
75536;BME280;64119;52.070;20.804;2023-03-01T02:57:47;101685.77;;;-3.28;77.26
75536;BME280;64119;52.070;20.804;2023-03-01T03:00:24;101682.36;;;-3.23;77.21
75536;BME280;64119;52.070;20.804;2023-03-01T03:02:54;101681.71;;;-3.16;77.25
75536;BME280;64119;52.070;20.804;2023-03-01T03:05:27;101675.23;;;-3.10;77.17
75536;BME280;64119;52.070;20.804;2023-03-01T03:07:59;101677.78;;;-3.09;77.05
75536;BME280;64119;52.070;20.804;2023-03-01T03:10:31;101676.73;;;-3.09;77.59
75536;BME280;64119;52.070;20.804;2023-03-01T03:13:05;101673.80;;;-3.06;77.57
75536;BME280;64119;52.070;20.804;2023-03-01T03:15:33;101676.84;;;-3.00;77.49
75536;BME280;64119;52.070;20.804;2023-03-01T03:18:09;101675.63;;;-3.00;77.63
75536;BME280;64119;52.070;20.804;2023-03-01T03:20:40;101673.31;;;-2.99;77.53
75536;BME280;64119;52.070;20.804;2023-03-01T03:23:08;101673.71;;;-3.04;77.25
75536;BME280;64119;52.070;20.804;2023-03-01T03:25:36;101675.36;;;-3.06;77.76
75536;BME280;64119;52.070;20.804;2023-03-01T03:28:06;101671.66;;;-3.04;77.93
75536;BME280;64119;52.070;20.804;2023-03-01T03:30:39;101666.55;;;-3.06;77.46
75536;BME280;64119;52.070;20.804;2023-03-01T03:33:08;101663.55;;;-3.05;77.54
75536;BME280;64119;52.070;20.804;2023-03-01T03:35:46;101664.31;;;-3.03;77.83
75536;BME280;64119;52.070;20.804;2023-03-01T03:38:16;101662.31;;;-3.04;77.58
75536;BME280;64119;52.070;20.804;2023-03-01T03:40:47;101661.52;;;-3.10;78.05
75536;BME280;64119;52.070;20.804;2023-03-01T03:43:21;101653.54;;;-3.13;77.60
75536;BME280;64119;52.070;20.804;2023-03-01T03:45:50;101646.95;;;-3.12;76.99
75536;BME280;64119;52.070;20.804;2023-03-01T03:48:19;101642.60;;;-3.12;76.49
75536;BME280;64119;52.070;20.804;2023-03-01T03:50:52;101635.67;;;-3.12;76.66
75536;BME280;64119;52.070;20.804;2023-03-01T03:53:22;101636.27;;;-3.10;76.82
75536;BME280;64119;52.070;20.804;2023-03-01T03:55:51;101629.09;;;-3.08;77.06
75536;BME280;64119;52.070;20.804;2023-03-01T03:58:22;101622.12;;;-3.07;76.52
75536;BME280;64119;52.070;20.804;2023-03-01T04:00:53;101619.40;;;-3.08;76.55
75536;BME280;64119;52.070;20.804;2023-03-01T04:03:23;101624.52;;;-3.06;76.77
75536;BME280;64119;52.070;20.804;2023-03-01T04:05:51;101626.61;;;-3.06;77.53
75536;BME280;64119;52.070;20.804;2023-03-01T04:08:20;101628.67;;;-3.06;77.63
75536;BME280;64119;52.070;20.804;2023-03-01T04:10:51;101629.38;;;-3.06;76.90
75536;BME280;64119;52.070;20.804;2023-03-01T04:13:21;101627.98;;;-3.07;77.16
75536;BME280;64119;52.070;20.804;2023-03-01T04:15:50;101626.06;;;-3.06;77.54
75536;BME280;64119;52.070;20.804;2023-03-01T04:18:20;101621.94;;;-3.03;77.72
75536;BME280;64119;52.070;20.804;2023-03-01T04:20:48;101620.05;;;-2.99;77.59
75536;BME280;64119;52.070;20.804;2023-03-01T04:23:18;101618.52;;;-2.96;77.33
75536;BME280;64119;52.070;20.804;2023-03-01T04:25:52;101617.55;;;-2.94;77.14
75536;BME280;64119;52.070;20.804;2023-03-01T04:28:33;101608.02;;;-2.94;77.51
75536;BME280;64119;52.070;20.804;2023-03-01T04:31:07;101611.04;;;-2.92;77.10
75536;BME280;64119;52.070;20.804;2023-03-01T04:33:44;101616.49;;;-2.94;78.08
75536;BME280;64119;52.070;20.804;2023-03-01T04:36:14;101623.45;;;-2.98;78.09
75536;BME280;64119;52.070;20.804;2023-03-01T04:38:42;101626.41;;;-2.98;77.55
75536;BME280;64119;52.070;20.804;2023-03-01T04:41:11;101626.27;;;-2.99;77.90
75536;BME280;64119;52.070;20.804;2023-03-01T04:43:39;101633.85;;;-2.99;77.87
75536;BME280;64119;52.070;20.804;2023-03-01T04:46:09;101632.15;;;-3.00;77.55
75536;BME280;64119;52.070;20.804;2023-03-01T04:48:43;101631.48;;;-3.00;78.06
75536;BME280;64119;52.070;20.804;2023-03-01T04:51:11;101633.56;;;-3.00;78.21
75536;BME280;64119;52.070;20.804;2023-03-01T04:53:43;101628.36;;;-3.00;78.04
75536;BME280;64119;52.070;20.804;2023-03-01T04:56:12;101623.89;;;-3.00;77.47
75536;BME280;64119;52.070;20.804;2023-03-01T04:58:41;101624.27;;;-3.01;77.88
75536;BME280;64119;52.070;20.804;2023-03-01T05:01:12;101613.57;;;-3.02;78.07
75536;BME280;64119;52.070;20.804;2023-03-01T05:03:46;101610.09;;;-3.01;78.00
75536;BME280;64119;52.070;20.804;2023-03-01T05:06:15;101607.68;;;-3.02;78.50
75536;BME280;64119;52.070;20.804;2023-03-01T05:08:43;101601.23;;;-3.01;78.24
75536;BME280;64119;52.070;20.804;2023-03-01T05:11:11;101600.68;;;-3.00;78.22
75536;BME280;64119;52.070;20.804;2023-03-01T05:13:40;101599.70;;;-3.05;78.62
75536;BME280;64119;52.070;20.804;2023-03-01T05:16:08;101587.90;;;-3.08;78.58
75536;BME280;64119;52.070;20.804;2023-03-01T05:18:40;101593.09;;;-3.08;78.09
75536;BME280;64119;52.070;20.804;2023-03-01T05:21:10;101594.39;;;-3.06;79.01
75536;BME280;64119;52.070;20.804;2023-03-01T05:23:39;101587.83;;;-3.06;77.75
75536;BME280;64119;52.070;20.804;2023-03-01T05:26:08;101585.44;;;-3.03;77.47
75536;BME280;64119;52.070;20.804;2023-03-01T05:28:54;101585.64;;;-3.00;77.16
75536;BME280;64119;52.070;20.804;2023-03-01T05:31:27;101594.17;;;-2.98;77.46
75536;BME280;64119;52.070;20.804;2023-03-01T05:33:55;101599.79;;;-2.96;77.93
75536;BME280;64119;52.070;20.804;2023-03-01T05:36:22;101604.36;;;-2.93;77.78
75536;BME280;64119;52.070;20.804;2023-03-01T05:38:50;101607.04;;;-2.91;78.09
75536;BME280;64119;52.070;20.804;2023-03-01T05:41:18;101607.04;;;-2.88;77.58
75536;BME280;64119;52.070;20.804;2023-03-01T05:43:46;101608.77;;;-2.85;77.41
75536;BME280;64119;52.070;20.804;2023-03-01T05:46:13;101611.70;;;-2.84;77.34
75536;BME280;64119;52.070;20.804;2023-03-01T05:48:42;101613.90;;;-2.83;78.26
75536;BME280;64119;52.070;20.804;2023-03-01T05:51:11;101620.68;;;-2.80;77.67
75536;BME280;64119;52.070;20.804;2023-03-01T05:53:39;101623.24;;;-2.76;77.56
75536;BME280;64119;52.070;20.804;2023-03-01T05:56:07;101627.94;;;-2.73;77.75
75536;BME280;64119;52.070;20.804;2023-03-01T05:58:35;101633.29;;;-2.69;77.18
75536;BME280;64119;52.070;20.804;2023-03-01T06:01:02;101632.81;;;-2.62;77.49
75536;BME280;64119;52.070;20.804;2023-03-01T06:03:30;101635.19;;;-2.57;77.62
75536;BME280;64119;52.070;20.804;2023-03-01T06:05:58;101636.84;;;-2.52;77.95
75536;BME280;64119;52.070;20.804;2023-03-01T06:08:26;101632.06;;;-2.47;77.82
75536;BME280;64119;52.070;20.804;2023-03-01T06:10:54;101625.88;;;-2.41;77.14
75536;BME280;64119;52.070;20.804;2023-03-01T06:13:23;101629.72;;;-2.35;77.57
75536;BME280;64119;52.070;20.804;2023-03-01T06:15:51;101633.02;;;-2.28;77.34
75536;BME280;64119;52.070;20.804;2023-03-01T06:18:19;101634.94;;;-2.21;77.39
75536;BME280;64119;52.070;20.804;2023-03-01T06:20:55;101635.21;;;-2.17;77.37
75536;BME280;64119;52.070;20.804;2023-03-01T06:23:23;101637.22;;;-2.09;77.21
75536;BME280;64119;52.070;20.804;2023-03-01T06:25:51;101637.10;;;-2.02;77.22
75536;BME280;64119;52.070;20.804;2023-03-01T06:28:19;101640.33;;;-1.94;77.42
75536;BME280;64119;52.070;20.804;2023-03-01T06:30:47;101639.25;;;-1.87;77.17
75536;BME280;64119;52.070;20.804;2023-03-01T06:33:15;101638.63;;;-1.78;76.95
75536;BME280;64119;52.070;20.804;2023-03-01T06:35:42;101635.48;;;-1.71;77.01
75536;BME280;64119;52.070;20.804;2023-03-01T06:38:10;101635.98;;;-1.61;76.87
75536;BME280;64119;52.070;20.804;2023-03-01T06:40:38;101635.85;;;-1.52;76.87
75536;BME280;64119;52.070;20.804;2023-03-01T06:43:06;101635.55;;;-1.43;77.04
75536;BME280;64119;52.070;20.804;2023-03-01T06:45:35;101632.30;;;-1.37;77.46
75536;BME280;64119;52.070;20.804;2023-03-01T06:48:07;101626.73;;;-1.27;76.85
75536;BME280;64119;52.070;20.804;2023-03-01T06:50:35;101625.63;;;-1.13;76.39
75536;BME280;64119;52.070;20.804;2023-03-01T06:53:04;101626.99;;;-1.01;76.32
75536;BME280;64119;52.070;20.804;2023-03-01T06:55:32;101623.35;;;-0.91;76.05
75536;BME280;64119;52.070;20.804;2023-03-01T06:58:01;101625.60;;;-0.79;75.76
75536;BME280;64119;52.070;20.804;2023-03-01T07:00:30;101628.70;;;-0.69;76.09
75536;BME280;64119;52.070;20.804;2023-03-01T07:02:59;101626.10;;;-0.60;75.60
75536;BME280;64119;52.070;20.804;2023-03-01T07:05:28;101625.38;;;-0.47;75.64
75536;BME280;64119;52.070;20.804;2023-03-01T07:07:57;101625.52;;;-0.35;75.46
75536;BME280;64119;52.070;20.804;2023-03-01T07:10:24;101624.38;;;-0.21;75.26
75536;BME280;64119;52.070;20.804;2023-03-01T07:12:57;101626.65;;;-0.10;75.50
75536;BME280;64119;52.070;20.804;2023-03-01T07:15:25;101623.52;;;0.05;75.15
75536;BME280;64119;52.070;20.804;2023-03-01T07:17:55;101621.20;;;0.23;74.78
75536;BME280;64119;52.070;20.804;2023-03-01T07:20:23;101621.89;;;0.38;74.43
75536;BME280;64119;52.070;20.804;2023-03-01T07:22:54;101622.66;;;0.54;74.67
75536;BME280;64119;52.070;20.804;2023-03-01T07:25:22;101626.31;;;0.73;74.68
75536;BME280;64119;52.070;20.804;2023-03-01T07:27:51;101620.55;;;0.93;73.91
75536;BME280;64119;52.070;20.804;2023-03-01T07:30:20;101620.12;;;1.08;72.96
75536;BME280;64119;52.070;20.804;2023-03-01T07:32:49;101619.13;;;1.23;73.23
75536;BME280;64119;52.070;20.804;2023-03-01T07:35:17;101615.39;;;1.40;72.74
75536;BME280;64119;52.070;20.804;2023-03-01T07:37:45;101612.27;;;1.59;73.05
75536;BME280;64119;52.070;20.804;2023-03-01T07:40:13;101612.07;;;1.77;72.05
75536;BME280;64119;52.070;20.804;2023-03-01T07:42:41;101613.55;;;1.94;72.20
75536;BME280;64119;52.070;20.804;2023-03-01T07:45:09;101611.09;;;2.22;71.74
75536;BME280;64119;52.070;20.804;2023-03-01T07:47:37;101606.44;;;2.49;70.90
75536;BME280;64119;52.070;20.804;2023-03-01T07:50:06;101603.01;;;2.75;70.41
75536;BME280;64119;52.070;20.804;2023-03-01T07:52:34;101607.10;;;2.91;69.17
75536;BME280;64119;52.070;20.804;2023-03-01T07:55:02;101597.55;;;3.15;69.82
75536;BME280;64119;52.070;20.804;2023-03-01T07:57:30;101588.58;;;3.35;69.18
75536;BME280;64119;52.070;20.804;2023-03-01T07:59:57;101584.34;;;3.56;67.79
75536;BME280;64119;52.070;20.804;2023-03-01T08:02:25;101581.86;;;3.77;67.80
75536;BME280;64119;52.070;20.804;2023-03-01T08:04:53;101584.56;;;3.96;66.49
75536;BME280;64119;52.070;20.804;2023-03-01T08:07:20;101587.67;;;4.11;65.62
75536;BME280;64119;52.070;20.804;2023-03-01T08:09:48;101586.00;;;4.35;65.82
75536;BME280;64119;52.070;20.804;2023-03-01T08:12:16;101588.04;;;4.53;64.38
75536;BME280;64119;52.070;20.804;2023-03-01T08:14:44;101586.93;;;4.74;64.31
75536;BME280;64119;52.070;20.804;2023-03-01T08:17:13;101588.96;;;5.03;63.95
75536;BME280;64119;52.070;20.804;2023-03-01T08:19:42;101591.50;;;5.34;62.74
75536;BME280;64119;52.070;20.804;2023-03-01T08:22:10;101585.05;;;5.67;61.76
75536;BME280;64119;52.070;20.804;2023-03-01T08:24:38;101585.84;;;5.94;61.85
75536;BME280;64119;52.070;20.804;2023-03-01T08:27:05;101588.09;;;6.15;59.90
75536;BME280;64119;52.070;20.804;2023-03-01T08:29:33;101587.89;;;6.41;61.15
75536;BME280;64119;52.070;20.804;2023-03-01T08:32:01;101593.36;;;6.75;61.65
75536;BME280;64119;52.070;20.804;2023-03-01T08:34:29;101589.89;;;7.10;59.88
75536;BME280;64119;52.070;20.804;2023-03-01T08:36:58;101582.64;;;7.36;58.92
75536;BME280;64119;52.070;20.804;2023-03-01T08:39:26;101582.38;;;7.62;57.81
75536;BME280;64119;52.070;20.804;2023-03-01T08:41:54;101578.82;;;7.75;53.84
75536;BME280;64119;52.070;20.804;2023-03-01T08:44:22;101584.52;;;7.69;53.36
75536;BME280;64119;52.070;20.804;2023-03-01T08:46:50;101583.59;;;7.83;54.02
75536;BME280;64119;52.070;20.804;2023-03-01T08:49:19;101584.33;;;7.88;51.63
75536;BME280;64119;52.070;20.804;2023-03-01T08:51:48;101587.01;;;7.82;51.96
75536;BME280;64119;52.070;20.804;2023-03-01T08:54:18;101584.35;;;7.99;51.56
75536;BME280;64119;52.070;20.804;2023-03-01T08:56:48;101581.41;;;8.18;51.24
75536;BME280;64119;52.070;20.804;2023-03-01T08:59:16;101579.45;;;8.12;49.90
75536;BME280;64119;52.070;20.804;2023-03-01T09:01:45;101574.25;;;8.02;50.12
75536;BME280;64119;52.070;20.804;2023-03-01T09:04:14;101577.14;;;8.03;50.73
75536;BME280;64119;52.070;20.804;2023-03-01T09:06:42;101580.91;;;8.29;50.40
75536;BME280;64119;52.070;20.804;2023-03-01T09:09:14;101579.34;;;8.36;49.61
75536;BME280;64119;52.070;20.804;2023-03-01T09:11:44;101582.02;;;8.28;48.02
75536;BME280;64119;52.070;20.804;2023-03-01T09:14:13;101590.27;;;8.23;48.23
75536;BME280;64119;52.070;20.804;2023-03-01T09:16:42;101587.45;;;8.30;48.67
75536;BME280;64119;52.070;20.804;2023-03-01T09:19:10;101589.45;;;8.54;48.58
75536;BME280;64119;52.070;20.804;2023-03-01T09:21:38;101589.98;;;8.66;48.28
75536;BME280;64119;52.070;20.804;2023-03-01T09:24:14;101587.58;;;8.89;47.65
75536;BME280;64119;52.070;20.804;2023-03-01T09:26:42;101592.39;;;8.86;47.56
75536;BME280;64119;52.070;20.804;2023-03-01T09:29:10;101584.99;;;8.93;47.82
75536;BME280;64119;52.070;20.804;2023-03-01T09:31:38;101583.30;;;9.09;47.67
75536;BME280;64119;52.070;20.804;2023-03-01T09:34:06;101585.20;;;8.94;47.65
75536;BME280;64119;52.070;20.804;2023-03-01T09:36:35;101584.90;;;8.97;48.46
75536;BME280;64119;52.070;20.804;2023-03-01T09:39:03;101585.57;;;9.15;48.24
75536;BME280;64119;52.070;20.804;2023-03-01T09:41:43;101580.48;;;9.34;48.11
75536;BME280;64119;52.070;20.804;2023-03-01T09:46:45;101572.80;;;9.77;46.97
75536;BME280;64119;52.070;20.804;2023-03-01T09:49:19;101570.02;;;9.60;46.80
75536;BME280;64119;52.070;20.804;2023-03-01T09:54:23;101564.05;;;9.27;48.48
75536;BME280;64119;52.070;20.804;2023-03-01T09:57:18;101562.71;;;9.13;48.99
75536;BME280;64119;52.070;20.804;2023-03-01T10:02:49;101558.43;;;8.99;49.34
75536;BME280;64119;52.070;20.804;2023-03-01T10:08:58;101554.63;;;9.00;49.28
75536;BME280;64119;52.070;20.804;2023-03-01T10:11:31;101552.44;;;8.90;49.34
75536;BME280;64119;52.070;20.804;2023-03-01T10:14:07;101549.49;;;8.98;49.58
75536;BME280;64119;52.070;20.804;2023-03-01T10:19:40;101542.33;;;9.63;49.69
75536;BME280;64119;52.070;20.804;2023-03-01T10:22:26;101541.88;;;10.24;48.87
75536;BME280;64119;52.070;20.804;2023-03-01T10:24:58;101542.00;;;10.70;47.13
75536;BME280;64119;52.070;20.804;2023-03-01T10:27:42;101534.48;;;10.75;46.35
75536;BME280;64119;52.070;20.804;2023-03-01T10:30:30;101526.13;;;10.98;46.71
75536;BME280;64119;52.070;20.804;2023-03-01T10:33:00;101514.95;;;11.27;46.40
75536;BME280;64119;52.070;20.804;2023-03-01T10:35:33;101504.80;;;11.60;45.91
75536;BME280;64119;52.070;20.804;2023-03-01T10:38:09;101504.56;;;12.04;45.35
75536;BME280;64119;52.070;20.804;2023-03-01T10:41:06;101501.79;;;12.35;43.77
75536;BME280;64119;52.070;20.804;2023-03-01T10:49:22;101500.09;;;12.03;44.30
75536;BME280;64119;52.070;20.804;2023-03-01T10:51:52;101491.22;;;12.25;43.72
75536;BME280;64119;52.070;20.804;2023-03-01T10:54:29;101492.70;;;12.43;43.20
75536;BME280;64119;52.070;20.804;2023-03-01T10:56:59;101493.98;;;12.51;43.54
75536;BME280;64119;52.070;20.804;2023-03-01T10:59:36;101496.05;;;12.62;42.59
75536;BME280;64119;52.070;20.804;2023-03-01T11:02:22;101491.77;;;12.37;42.99
75536;BME280;64119;52.070;20.804;2023-03-01T11:07:24;101489.83;;;12.62;43.01
75536;BME280;64119;52.070;20.804;2023-03-01T11:09:52;101489.84;;;12.85;42.72
75536;BME280;64119;52.070;20.804;2023-03-01T11:12:20;101483.19;;;12.89;41.83
75536;BME280;64119;52.070;20.804;2023-03-01T11:14:50;101481.34;;;12.63;41.81
75536;BME280;64119;52.070;20.804;2023-03-01T11:17:28;101480.27;;;12.43;41.65
75536;BME280;64119;52.070;20.804;2023-03-01T11:22:50;101471.23;;;11.90;42.74
75536;BME280;64119;52.070;20.804;2023-03-01T11:25:24;101472.14;;;12.14;43.50
75536;BME280;64119;52.070;20.804;2023-03-01T11:27:53;101474.45;;;12.49;43.15
75536;BME280;64119;52.070;20.804;2023-03-01T11:30:24;101468.30;;;12.74;42.72
75536;BME280;64119;52.070;20.804;2023-03-01T11:33:03;101467.48;;;12.83;42.20
75536;BME280;64119;52.070;20.804;2023-03-01T11:35:35;101467.48;;;12.73;42.20
75536;BME280;64119;52.070;20.804;2023-03-01T11:46:02;101449.83;;;12.89;41.93
75536;BME280;64119;52.070;20.804;2023-03-01T11:51:24;101449.80;;;12.33;42.72
75536;BME280;64119;52.070;20.804;2023-03-01T11:56:39;101451.35;;;12.43;43.41
75536;BME280;64119;52.070;20.804;2023-03-01T12:04:58;101450.63;;;12.28;43.19
75536;BME280;64119;52.070;20.804;2023-03-01T12:08:40;101452.19;;;11.78;44.25
75536;BME280;64119;52.070;20.804;2023-03-01T12:10:53;101455.71;;;11.32;45.05
75536;BME280;64119;52.070;20.804;2023-03-01T12:28:13;101448.40;;;11.50;45.71
75536;BME280;64119;52.070;20.804;2023-03-01T12:39:20;101446.36;;;11.36;46.54
75536;BME280;64119;52.070;20.804;2023-03-01T12:42:02;101447.55;;;11.12;46.72
75536;BME280;64119;52.070;20.804;2023-03-01T12:50:14;101443.36;;;10.66;48.35
75536;BME280;64119;52.070;20.804;2023-03-01T12:52:50;101444.80;;;10.58;49.04
75536;BME280;64119;52.070;20.804;2023-03-01T13:00:34;101437.63;;;10.25;49.02
75536;BME280;64119;52.070;20.804;2023-03-01T13:06:04;101434.02;;;10.08;49.52
75536;BME280;64119;52.070;20.804;2023-03-01T13:09:30;101430.55;;;10.15;49.70
75536;BME280;64119;52.070;20.804;2023-03-01T13:11:29;101429.11;;;10.06;49.92
75536;BME280;64119;52.070;20.804;2023-03-01T13:16:53;101429.16;;;9.89;49.91
75536;BME280;64119;52.070;20.804;2023-03-01T13:19:23;101431.04;;;9.87;50.24
75536;BME280;64119;52.070;20.804;2023-03-01T13:33:50;101412.89;;;9.05;52.51
75536;BME280;64119;52.070;20.804;2023-03-01T13:39:02;101405.76;;;8.91;53.25
75536;BME280;64119;52.070;20.804;2023-03-01T13:47:14;101406.01;;;8.49;54.37
75536;BME280;64119;52.070;20.804;2023-03-01T13:50:01;101405.83;;;8.35;54.52
75536;BME280;64119;52.070;20.804;2023-03-01T13:52:35;101401.84;;;8.14;55.48
75536;BME280;64119;52.070;20.804;2023-03-01T13:57:44;101393.76;;;7.75;56.45
75536;BME280;64119;52.070;20.804;2023-03-01T14:00:32;101393.53;;;7.69;55.87
75536;BME280;64119;52.070;20.804;2023-03-01T14:03:04;101394.52;;;7.67;55.99
75536;BME280;64119;52.070;20.804;2023-03-01T14:05:34;101397.42;;;7.68;55.85
75536;BME280;64119;52.070;20.804;2023-03-01T14:21:00;101390.42;;;7.27;57.20
75536;BME280;64119;52.070;20.804;2023-03-01T14:23:28;101390.73;;;7.20;57.66
75536;BME280;64119;52.070;20.804;2023-03-01T14:25:57;101387.20;;;7.07;58.46
75536;BME280;64119;52.070;20.804;2023-03-01T14:30:55;101381.94;;;6.94;58.80
75536;BME280;64119;52.070;20.804;2023-03-01T14:36:00;101378.93;;;6.96;58.78
75536;BME280;64119;52.070;20.804;2023-03-01T14:38:39;101376.95;;;6.87;59.16
75536;BME280;64119;52.070;20.804;2023-03-01T14:41:14;101370.23;;;6.78;59.16
75536;BME280;64119;52.070;20.804;2023-03-01T14:43:57;101372.70;;;6.70;59.69
75536;BME280;64119;52.070;20.804;2023-03-01T14:46:38;101366.71;;;6.72;59.58
75536;BME280;64119;52.070;20.804;2023-03-01T14:49:17;101366.27;;;6.65;59.58
75536;BME280;64119;52.070;20.804;2023-03-01T14:51:52;101365.43;;;6.66;59.49
75536;BME280;64119;52.070;20.804;2023-03-01T14:54:25;101358.46;;;6.60;60.32
75536;BME280;64119;52.070;20.804;2023-03-01T14:56:58;101355.98;;;6.56;60.62
75536;BME280;64119;52.070;20.804;2023-03-01T14:59:28;101354.83;;;6.56;59.99
75536;BME280;64119;52.070;20.804;2023-03-01T15:01:57;101356.19;;;6.58;59.98
75536;BME280;64119;52.070;20.804;2023-03-01T15:04:26;101352.55;;;6.57;60.06
75536;BME280;64119;52.070;20.804;2023-03-01T15:06:57;101352.11;;;6.51;60.19
75536;BME280;64119;52.070;20.804;2023-03-01T15:09:34;101356.38;;;6.47;60.36
75536;BME280;64119;52.070;20.804;2023-03-01T15:14:56;101353.21;;;6.37;60.59
75536;BME280;64119;52.070;20.804;2023-03-01T15:17:36;101349.45;;;6.32;60.58
75536;BME280;64119;52.070;20.804;2023-03-01T15:20:15;101349.34;;;6.24;61.47
75536;BME280;64119;52.070;20.804;2023-03-01T15:22:45;101345.23;;;6.14;61.28